Time;durP1;ratioP1;P1;durP2;ratioP2;P2;SDS_P1;SDS_P2;PMS_P1;PMS_P2;Temp;Humidity;BMP_temperature;BMP_pressure;BME280_temperature;BME280_humidity;BME280_pressure;Samples;Min_cycle;Max_cycle;Signal;HPM_P1;HPM_P2
2021/06/13 00:01:07;;;;;;;8.90;8.07;;;25.20;47.60;;;;;;5011089;28;20519;-53
2021/06/13 00:03:33;;;;;;;9.07;8.17;;;25.10;47.70;;;;;;5011550;28;20657;-54
2021/06/13 00:05:59;;;;;;;8.93;8.03;;;25.10;47.90;;;;;;5009775;28;20223;-53
2021/06/13 00:08:25;;;;;;;8.97;8.23;;;25.10;47.90;;;;;;5020460;28;20958;-54
2021/06/13 00:10:50;;;;;;;7.80;7.10;;;25.00;48.00;;;;;;5030249;28;20247;-53
2021/06/13 00:13:16;;;;;;;7.43;6.63;;;25.00;48.30;;;;;;5030969;28;20352;-54
2021/06/13 00:15:42;;;;;;;7.93;7.17;;;25.00;48.50;;;;;;5033288;28;20200;-54
2021/06/13 00:18:07;;;;;;;7.87;7.17;;;25.00;48.70;;;;;;5034114;28;20243;-52
2021/06/13 00:20:34;;;;;;;7.47;6.70;;;24.90;48.70;;;;;;5020962;28;20198;-53
2021/06/13 00:23:00;;;;;;;8.03;7.13;;;24.90;48.80;;;;;;5014765;28;20572;-52
2021/06/13 00:25:25;;;;;;;7.57;6.87;;;24.90;49.10;;;;;;5014082;28;20417;-52
2021/06/13 00:27:51;;;;;;;7.50;6.80;;;24.90;49.20;;;;;;5014489;28;20229;-53
2021/06/13 00:30:17;;;;;;;7.43;6.80;;;24.90;49.30;;;;;;5013755;28;20220;-52
2021/06/13 00:32:43;;;;;;;8.47;7.70;;;24.80;49.30;;;;;;5014366;28;20198;-51
2021/06/13 00:35:10;;;;;;;9.53;7.67;;;24.80;49.50;;;;;;5013690;28;20217;-54
2021/06/13 00:37:35;;;;;;;9.47;7.83;;;24.80;49.10;;;;;;5014596;28;20476;-51
2021/06/13 00:40:02;;;;;;;7.77;7.13;;;24.80;49.00;;;;;;5013786;28;20468;-55
2021/06/13 00:42:27;;;;;;;9.43;7.57;;;24.80;48.90;;;;;;5021907;28;20204;-53
2021/06/13 00:44:53;;;;;;;8.97;8.10;;;24.80;49.10;;;;;;5013822;28;20789;-53
2021/06/13 00:47:19;;;;;;;9.30;8.40;;;24.80;49.20;;;;;;5012611;28;20776;-51
2021/06/13 00:49:45;;;;;;;8.90;7.27;;;24.80;49.30;;;;;;5013537;28;20232;-51
2021/06/13 00:52:10;;;;;;;8.83;7.93;;;24.70;49.40;;;;;;5014223;28;20205;-51
2021/06/13 00:54:36;;;;;;;9.43;8.17;;;24.80;49.40;;;;;;5013254;28;20190;-51
2021/06/13 00:57:02;;;;;;;8.40;7.60;;;24.80;49.40;;;;;;5014122;28;20196;-50
2021/06/13 00:59:28;;;;;;;9.67;8.47;;;24.80;49.40;;;;;;5012994;28;20205;-52
2021/06/13 01:01:53;;;;;;;9.53;8.63;;;24.70;49.40;;;;;;5013703;28;20425;-52
2021/06/13 01:04:19;;;;;;;9.43;8.63;;;24.70;49.40;;;;;;5013501;28;20225;-50
2021/06/13 01:07:08;;;;;;;8.37;7.67;;;24.60;49.40;;;;;;5013862;28;20617;-51
2021/06/13 01:09:41;;;;;;;8.37;7.60;;;24.60;49.50;;;;;;5031735;28;20281;-53
2021/06/13 01:12:13;;;;;;;8.77;7.83;;;24.60;49.50;;;;;;5033090;28;21032;-53
2021/06/13 01:14:46;;;;;;;9.53;8.53;;;24.60;49.50;;;;;;5032094;28;20514;-51
2021/06/13 01:17:38;;;;;;;8.67;7.77;;;24.60;50.10;;;;;;5033501;28;20455;-54
2021/06/13 01:20:13;;;;;;;8.67;7.97;;;24.60;49.50;;;;;;5025619;28;20841;-53
2021/06/13 01:22:48;;;;;;;8.37;7.67;;;24.50;49.50;;;;;;5013463;28;20437;-50
2021/06/13 01:25:35;;;;;;;8.03;7.33;;;24.50;49.60;;;;;;5020844;28;20796;-54
2021/06/13 01:28:38;;;;;;;10.00;8.97;;;24.50;49.50;;;;;;5014300;28;20998;-53
2021/06/13 01:31:06;;;;;;;9.03;8.33;;;24.50;49.70;;;;;;5012804;28;20443;-53
2021/06/13 01:33:33;;;;;;;8.53;7.83;;;24.40;49.70;;;;;;5013906;28;20421;-51
2021/06/13 01:36:01;;;;;;;10.00;9.10;;;24.40;49.70;;;;;;5012820;28;20432;-53
2021/06/13 01:38:29;;;;;;;8.37;7.40;;;24.40;49.80;;;;;;5012820;28;20470;-55
2021/06/13 01:40:59;;;;;;;8.73;7.73;;;24.40;49.80;;;;;;5011316;28;20439;-54
2021/06/13 01:43:26;;;;;;;9.80;8.47;;;24.30;49.80;;;;;;5033048;28;20424;-53
2021/06/13 01:45:54;;;;;;;10.00;8.30;;;24.30;49.90;;;;;;5013724;28;20421;-54
2021/06/13 01:48:21;;;;;;;8.10;7.40;;;24.30;50.50;;;;;;5012963;28;20484;-55
2021/06/13 01:50:48;;;;;;;8.07;7.37;;;24.30;49.80;;;;;;5012134;28;20429;-54
2021/06/13 01:53:16;;;;;;;7.80;6.63;;;24.30;49.70;;;;;;5013159;28;20440;-54
2021/06/13 01:55:47;;;;;;;9.20;8.27;;;24.30;49.60;;;;;;5010950;28;20440;-55
2021/06/13 01:58:17;;;;;;;9.43;8.53;;;24.30;49.40;;;;;;5012914;28;20503;-53
2021/06/13 02:00:44;;;;;;;9.90;7.60;;;24.30;49.40;;;;;;5018810;28;20455;-54
2021/06/13 02:03:11;;;;;;;7.70;7.00;;;24.30;49.50;;;;;;5032504;28;20424;-54
2021/06/13 02:05:37;;;;;;;8.00;7.17;;;24.30;49.60;;;;;;5029359;28;20868;-54
2021/06/13 02:08:03;;;;;;;9.10;8.40;;;24.30;49.70;;;;;;5032379;28;20541;-53
2021/06/13 02:10:31;;;;;;;8.10;7.40;;;24.20;49.60;;;;;;5031373;28;20424;-53
2021/06/13 02:12:58;;;;;;;8.47;7.77;;;24.10;49.40;;;;;;5032154;28;20464;-53
2021/06/13 02:15:25;;;;;;;7.97;7.37;;;24.20;49.50;;;;;;5031788;28;20428;-54
2021/06/13 02:17:51;;;;;;;11.30;7.37;;;24.10;49.40;;;;;;5032398;28;20427;-53
2021/06/13 02:20:27;;;;;;;8.53;7.70;;;24.20;49.30;;;;;;5022718;28;20494;-53
2021/06/13 02:22:53;;;;;;;9.17;7.77;;;24.10;49.20;;;;;;5012261;28;20436;-53
2021/06/13 02:25:21;;;;;;;7.40;6.70;;;24.10;49.20;;;;;;5012108;28;20421;-54
2021/06/13 02:27:46;;;;;;;7.70;6.90;;;24.10;49.10;;;;;;5012153;28;20523;-54
2021/06/13 02:30:16;;;;;;;8.40;7.60;;;24.10;49.20;;;;;;5011204;28;20457;-54
2021/06/13 02:32:43;;;;;;;7.07;6.37;;;24.10;49.10;;;;;;5010679;28;20194;-52
2021/06/13 02:35:10;;;;;;;8.60;6.53;;;24.10;49.10;;;;;;5011851;28;20512;-52
2021/06/13 02:37:38;;;;;;;13.50;6.97;;;24.10;49.10;;;;;;5010775;28;20540;-53
2021/06/13 02:40:06;;;;;;;8.27;7.43;;;24.10;49.00;;;;;;5011162;28;20963;-52
2021/06/13 02:42:32;;;;;;;7.60;6.90;;;24.10;48.80;;;;;;5020968;28;20481;-53
2021/06/13 02:44:58;;;;;;;8.30;6.13;;;24.10;48.80;;;;;;5011858;28;20475;-53
2021/06/13 02:47:23;;;;;;;9.17;8.27;;;24.00;48.70;;;;;;5012022;28;20241;-53
2021/06/13 02:49:49;;;;;;;9.10;6.37;;;24.00;48.40;;;;;;5010840;28;20201;-53
2021/06/13 02:52:23;;;;;;;6.80;6.10;;;24.00;48.30;;;;;;5012017;28;20190;-54
2021/06/13 02:54:57;;;;;;;9.50;6.17;;;24.00;48.30;;;;;;5011441;28;20196;-54
2021/06/13 02:57:36;;;;;;;7.60;6.20;;;24.00;48.50;;;;;;5011884;28;20468;-54
2021/06/13 03:00:07;;;;;;;8.27;6.47;;;24.00;48.70;;;;;;5009229;28;20427;-52
2021/06/13 03:02:34;;;;;;;6.40;5.50;;;24.00;48.90;;;;;;5012224;28;20528;-53
2021/06/13 03:05:08;;;;;;;6.80;6.10;;;24.00;49.30;;;;;;5011480;28;20425;-54
2021/06/13 03:07:35;;;;;;;6.80;6.10;;;24.00;49.50;;;;;;5013876;28;20522;-54
2021/06/13 03:10:06;;;;;;;7.40;6.70;;;24.00;49.50;;;;;;5030723;28;20424;-52
2021/06/13 03:12:33;;;;;;;10.43;7.57;;;24.00;49.70;;;;;;5031572;28;20515;-51
2021/06/13 03:14:59;;;;;;;8.80;6.80;;;24.00;49.80;;;;;;5030833;28;20435;-53
2021/06/13 03:17:26;;;;;;;6.63;6.03;;;23.90;49.70;;;;;;5031484;28;20470;-53
2021/06/13 03:19:53;;;;;;;8.00;6.47;;;23.90;49.70;;;;;;5025121;28;20440;-52
2021/06/13 03:22:20;;;;;;;8.47;7.20;;;23.90;49.80;;;;;;5012064;28;20560;-53
2021/06/13 03:24:48;;;;;;;7.90;6.50;;;23.90;49.70;;;;;;5009589;28;20798;-55
2021/06/13 03:27:14;;;;;;;9.73;6.93;;;23.90;49.50;;;;;;5011464;28;21056;-54
2021/06/13 03:29:43;;;;;;;7.70;7.00;;;23.80;49.40;;;;;;5010610;28;20421;-51
2021/06/13 03:32:10;;;;;;;7.53;6.67;;;23.80;49.30;;;;;;5011618;28;20285;-53
2021/06/13 03:34:38;;;;;;;7.60;6.90;;;23.80;49.40;;;;;;5010966;28;20440;-52
2021/06/13 03:37:07;;;;;;;9.20;6.43;;;23.80;49.60;;;;;;5011418;28;20436;-53
2021/06/13 03:39:34;;;;;;;8.00;7.20;;;23.70;49.70;;;;;;5010754;28;20917;-53
2021/06/13 03:42:00;;;;;;;9.60;6.47;;;23.70;49.80;;;;;;5020024;28;20427;-53
2021/06/13 03:44:27;;;;;;;7.17;6.47;;;23.70;49.70;;;;;;5010002;28;20445;-53
2021/06/13 03:46:55;;;;;;;8.57;7.47;;;23.70;50.00;;;;;;5010176;28;20932;-53
2021/06/13 03:49:22;;;;;;;7.93;6.87;;;23.70;49.90;;;;;;5010601;28;20487;-50
2021/06/13 03:51:49;;;;;;;8.27;7.07;;;23.70;49.90;;;;;;5013747;28;20425;-50
2021/06/13 03:54:15;;;;;;;9.00;6.90;;;23.60;50.00;;;;;;5014700;28;20433;-50
2021/06/13 03:56:45;;;;;;;8.13;6.83;;;23.60;49.70;;;;;;5015299;28;20439;-53
2021/06/13 03:59:11;;;;;;;6.70;6.10;;;23.70;49.60;;;;;;5014212;28;20194;-52
2021/06/13 04:01:40;;;;;;;6.77;6.13;;;23.70;49.50;;;;;;5015021;28;20468;-53
2021/06/13 04:04:06;;;;;;;7.50;6.73;;;23.70;49.50;;;;;;5014697;28;20424;-54
2021/06/13 04:06:32;;;;;;;7.63;6.87;;;23.70;49.50;;;;;;5014866;28;20496;-51
2021/06/13 04:08:59;;;;;;;7.07;6.37;;;23.70;49.50;;;;;;5028235;28;20424;-54
2021/06/13 04:11:26;;;;;;;10.50;6.57;;;23.70;49.50;;;;;;5034154;28;20670;-53
2021/06/13 04:13:55;;;;;;;8.43;6.90;;;23.60;49.40;;;;;;5034131;28;20837;-54
2021/06/13 04:16:22;;;;;;;9.73;7.90;;;23.60;49.20;;;;;;5034820;28;20764;-54
2021/06/13 04:18:48;;;;;;;6.53;5.93;;;23.60;49.30;;;;;;5032407;28;20436;-54
2021/06/13 04:21:14;;;;;;;7.50;6.80;;;23.70;49.40;;;;;;5017668;28;20511;-53
2021/06/13 04:23:42;;;;;;;7.73;6.90;;;23.70;49.40;;;;;;5014236;28;20428;-54
2021/06/13 04:26:12;;;;;;;8.33;6.70;;;23.70;49.40;;;;;;5014695;28;20437;-54
2021/06/13 04:28:38;;;;;;;8.63;6.83;;;23.60;49.50;;;;;;5014342;28;20852;-53
2021/06/13 04:31:03;;;;;;;8.40;7.60;;;23.60;49.80;;;;;;5013874;28;20421;-54
2021/06/13 04:33:35;;;;;;;7.23;6.60;;;23.60;50.00;;;;;;5014779;28;20190;-54
2021/06/13 04:36:02;;;;;;;11.00;7.20;;;23.60;50.40;;;;;;5012955;28;20236;-53
2021/06/13 04:38:28;;;;;;;7.80;7.07;;;23.60;50.80;;;;;;5014787;28;20425;-53
2021/06/13 04:40:54;;;;;;;9.23;8.10;;;23.60;50.90;;;;;;5013347;28;20436;-53
2021/06/13 04:43:20;;;;;;;8.13;7.37;;;23.60;50.80;;;;;;5022331;28;20425;-54
2021/06/13 04:45:46;;;;;;;7.53;6.77;;;23.60;50.70;;;;;;5012043;28;20569;-53
2021/06/13 04:48:12;;;;;;;8.03;7.23;;;23.60;50.70;;;;;;5014381;28;20257;-52
2021/06/13 04:50:43;;;;;;;7.80;6.50;;;23.60;50.40;;;;;;5013285;28;20194;-53
2021/06/13 04:53:48;;;;;;;7.80;7.00;;;23.60;50.10;;;;;;5014250;28;20198;-53
2021/06/13 04:56:20;;;;;;;7.37;6.60;;;23.60;49.70;;;;;;5013919;28;20443;-53
2021/06/13 04:58:46;;;;;;;6.93;6.33;;;23.60;49.40;;;;;;5013470;28;20866;-53
2021/06/13 05:01:11;;;;;;;7.00;5.97;;;23.50;49.40;;;;;;5013319;28;20465;-54
2021/06/13 05:03:37;;;;;;;6.60;6.00;;;23.60;49.30;;;;;;5013828;28;20601;-54
2021/06/13 05:06:03;;;;;;;7.47;6.40;;;23.60;49.40;;;;;;5013884;28;20285;-54
2021/06/13 05:08:29;;;;;;;11.33;7.40;;;23.60;49.20;;;;;;5023755;28;20201;-53
2021/06/13 05:10:55;;;;;;;6.63;6.00;;;23.60;49.20;;;;;;5030897;28;20205;-49
2021/06/13 05:13:20;;;;;;;7.10;6.40;;;23.50;49.10;;;;;;5033422;28;20244;-53
2021/06/13 05:15:46;;;;;;;7.30;6.63;;;23.50;49.30;;;;;;5033079;28;20197;-53
2021/06/13 05:18:12;;;;;;;10.50;6.17;;;23.40;49.60;;;;;;5033419;28;20193;-53
2021/06/13 05:20:38;;;;;;;7.93;6.40;;;23.40;50.00;;;;;;5021363;28;20197;-54
2021/06/13 05:23:06;;;;;;;10.10;6.67;;;23.40;50.50;;;;;;5013500;28;20623;-52
2021/06/13 05:25:37;;;;;;;6.37;5.77;;;23.40;51.40;;;;;;5013252;28;20205;-53
2021/06/13 05:28:04;;;;;;;7.37;6.67;;;23.50;50.60;;;;;;5013682;28;20473;-52
2021/06/13 05:30:32;;;;;;;8.90;6.50;;;23.50;50.00;;;;;;5012486;28;20440;-53
2021/06/13 05:32:58;;;;;;;7.67;6.70;;;23.60;49.20;;;;;;5013267;28;20484;-54
2021/06/13 05:35:24;;;;;;;7.00;6.30;;;23.60;49.00;;;;;;5012898;28;20433;-54
2021/06/13 05:37:51;;;;;;;6.27;5.10;;;23.70;48.90;;;;;;5011662;28;20986;-51
2021/06/13 05:40:19;;;;;;;6.40;5.70;;;23.70;48.70;;;;;;5012344;28;20834;-51
2021/06/13 05:42:45;;;;;;;12.13;6.60;;;23.70;48.50;;;;;;5021192;28;20499;-53
2021/06/13 05:45:12;;;;;;;7.93;6.40;;;23.80;48.50;;;;;;5012541;28;20429;-53
2021/06/13 05:47:39;;;;;;;6.37;5.27;;;23.90;48.80;;;;;;5013037;28;20480;-53
2021/06/13 05:50:06;;;;;;;7.00;5.97;;;23.90;49.60;;;;;;5012300;28;20766;-54
2021/06/13 05:52:32;;;;;;;6.53;5.90;;;23.90;48.90;;;;;;5019863;28;20428;-53
2021/06/13 05:54:58;;;;;;;9.80;6.10;;;24.00;48.20;;;;;;5032282;28;20511;-54
2021/06/13 05:57:31;;;;;;;6.60;6.00;;;24.00;48.00;;;;;;5032835;28;20692;-53
2021/06/13 06:00:08;;;;;;;8.60;6.40;;;24.00;48.40;;;;;;5031750;28;20266;-52
2021/06/13 06:02:35;;;;;;;6.87;6.17;;;24.10;48.10;;;;;;5032479;28;20554;-54
2021/06/13 06:05:00;;;;;;;6.63;5.87;;;24.20;48.00;;;;;;5030525;28;20778;-54
2021/06/13 06:07:26;;;;;;;6.23;5.60;;;24.30;47.80;;;;;;5032287;28;20529;-53
2021/06/13 06:09:52;;;;;;;8.77;6.90;;;24.40;47.80;;;;;;5031501;28;20193;-54
2021/06/13 06:12:17;;;;;;;12.63;6.77;;;24.50;48.00;;;;;;5031891;28;20241;-54
2021/06/13 06:14:44;;;;;;;8.03;6.77;;;24.50;48.10;;;;;;5030461;28;20255;-53
2021/06/13 06:17:10;;;;;;;7.00;6.23;;;24.50;48.30;;;;;;5031151;28;20284;-53
2021/06/13 06:19:36;;;;;;;8.03;6.63;;;24.50;48.00;;;;;;5027961;28;20543;-52
2021/06/13 06:22:03;;;;;;;9.63;6.37;;;24.60;48.10;;;;;;5012732;28;20440;-51
2021/06/13 06:24:29;;;;;;;7.07;6.30;;;24.70;48.30;;;;;;5012097;28;20429;-53
2021/06/13 06:26:55;;;;;;;11.00;6.63;;;24.70;48.40;;;;;;5012400;28;20495;-53
2021/06/13 06:29:20;;;;;;;10.10;7.03;;;24.80;47.60;;;;;;5011615;28;20251;-50
2021/06/13 06:31:46;;;;;;;6.37;5.57;;;24.80;47.50;;;;;;5010631;28;20197;-53
2021/06/13 06:34:13;;;;;;;7.77;5.80;;;24.90;47.00;;;;;;5011793;28;20252;-51
2021/06/13 06:36:38;;;;;;;5.83;5.33;;;25.00;47.50;;;;;;5012480;28;20209;-52
2021/06/13 06:39:04;;;;;;;5.77;5.20;;;25.10;48.30;;;;;;5011521;28;20905;-51
2021/06/13 06:41:30;;;;;;;6.07;5.20;;;25.20;47.80;;;;;;5016639;28;20185;-50
2021/06/13 06:43:55;;;;;;;6.13;5.53;;;25.20;47.00;;;;;;5015286;28;20202;-50
2021/06/13 06:46:21;;;;;;;5.57;4.97;;;25.40;45.80;;;;;;5012101;28;20225;-50
2021/06/13 06:48:47;;;;;;;5.23;4.83;;;25.40;46.00;;;;;;5011540;28;20638;-50
2021/06/13 06:51:12;;;;;;;6.27;4.90;;;25.40;44.50;;;;;;5011769;28;20194;-51
2021/06/13 06:53:40;;;;;;;5.40;4.90;;;25.40;46.10;;;;;;5011694;28;20209;-53
2021/06/13 06:56:07;;;;;;;5.07;4.67;;;25.50;45.60;;;;;;5011427;28;20190;-54
2021/06/13 06:58:32;;;;;;;5.90;4.80;;;25.60;44.90;;;;;;5011515;28;20437;-50
2021/06/13 07:00:58;;;;;;;6.10;4.73;;;25.70;45.30;;;;;;5010967;28;20429;-52
2021/06/13 07:03:23;;;;;;;7.00;4.43;;;25.80;44.70;;;;;;5011967;28;20204;-52
2021/06/13 07:05:49;;;;;;;5.37;4.67;;;26.00;44.30;;;;;;5011444;28;20269;-51
2021/06/13 07:08:15;;;;;;;7.00;4.53;;;26.00;43.80;;;;;;5019603;28;20233;-51
2021/06/13 07:10:40;;;;;;;5.40;4.90;;;26.10;44.50;;;;;;5030700;28;20221;-53
2021/06/13 07:13:06;;;;;;;5.27;4.87;;;26.30;43.60;;;;;;5028310;28;20329;-53
2021/06/13 07:15:31;;;;;;;4.80;4.40;;;26.40;42.70;;;;;;5011698;28;20664;-53
2021/06/13 07:17:57;;;;;;;5.47;4.50;;;26.40;42.30;;;;;;5011879;28;20233;-54
2021/06/13 07:20:23;;;;;;;4.93;4.43;;;26.50;43.40;;;;;;5018982;28;20198;-54
2021/06/13 07:22:48;;;;;;;5.60;3.83;;;26.50;43.70;;;;;;5010008;28;20737;-53
2021/06/13 07:25:14;;;;;;;8.33;4.33;;;26.70;43.70;;;;;;5013675;28;20248;-54
2021/06/13 07:27:40;;;;;;;5.70;4.60;;;26.80;43.10;;;;;;5015398;28;20348;-55
2021/06/13 07:30:15;;;;;;;6.70;4.47;;;27.00;43.00;;;;;;5014709;28;20201;-55
2021/06/13 07:32:41;;;;;;;5.10;4.53;;;27.10;41.90;;;;;;5015482;28;20436;-54
2021/06/13 07:35:08;;;;;;;6.20;4.07;;;27.20;41.70;;;;;;5015138;28;20783;-55
2021/06/13 07:37:34;;;;;;;6.53;4.60;;;27.30;41.00;;;;;;5015675;28;20432;-54
2021/06/13 07:40:00;;;;;;;5.63;4.43;;;27.30;41.10;;;;;;5014760;28;20802;-54
2021/06/13 07:42:25;;;;;;;6.80;4.83;;;27.50;40.50;;;;;;5024038;28;20194;-54
2021/06/13 07:44:51;;;;;;;4.50;4.03;;;27.60;41.60;;;;;;5014988;28;20704;-54
2021/06/13 07:47:18;;;;;;;6.43;4.67;;;27.60;39.90;;;;;;5015199;28;20677;-54
2021/06/13 07:49:45;;;;;;;6.33;4.80;;;27.70;39.50;;;;;;5012951;28;20229;-54
2021/06/13 07:52:12;;;;;;;6.70;5.30;;;27.80;40.90;;;;;;5015378;28;20432;-53
2021/06/13 07:54:38;;;;;;;6.67;4.83;;;27.70;41.30;;;;;;5014575;28;20461;-53
2021/06/13 07:57:04;;;;;;;4.70;4.30;;;27.80;40.60;;;;;;5014987;28;20461;-54
2021/06/13 07:59:30;;;;;;;8.13;4.30;;;27.80;40.70;;;;;;5014408;28;20205;-54
2021/06/13 08:01:55;;;;;;;5.27;4.77;;;28.00;41.10;;;;;;5015296;28;20198;-55
2021/06/13 08:04:21;;;;;;;5.60;4.63;;;28.20;39.10;;;;;;5014888;28;20292;-54
2021/06/13 08:06:47;;;;;;;7.43;4.90;;;28.10;39.40;;;;;;5014638;28;20224;-54
2021/06/13 08:09:13;;;;;;;5.70;4.70;;;28.10;39.40;;;;;;5030402;28;20424;-54
2021/06/13 08:11:39;;;;;;;4.50;4.10;;;28.10;39.30;;;;;;5034277;28;20232;-54
2021/06/13 08:14:04;;;;;;;4.13;3.53;;;28.10;38.90;;;;;;5033101;28;20211;-54
2021/06/13 08:16:30;;;;;;;5.77;4.37;;;28.10;39.10;;;;;;5031808;28;20310;-54
2021/06/13 08:18:55;;;;;;;5.20;4.20;;;28.10;38.90;;;;;;5032422;28;20189;-53
2021/06/13 08:21:22;;;;;;;4.83;4.10;;;28.10;38.70;;;;;;5015840;28;20598;-54
2021/06/13 08:23:47;;;;;;;5.23;4.50;;;28.10;39.80;;;;;;5012858;28;20199;-53
2021/06/13 08:26:14;;;;;;;6.27;3.70;;;28.10;39.60;;;;;;5013253;28;20441;-54
2021/06/13 08:28:40;;;;;;;4.93;3.80;;;28.30;39.60;;;;;;5012830;28;20229;-54
2021/06/13 08:31:05;;;;;;;6.93;4.10;;;28.60;39.30;;;;;;5013537;28;20841;-53
2021/06/13 08:33:32;;;;;;;7.20;4.43;;;28.70;37.90;;;;;;5013571;28;20276;-54
2021/06/13 08:35:57;;;;;;;3.90;3.53;;;28.70;37.10;;;;;;5011226;28;20194;-54
2021/06/13 08:38:24;;;;;;;4.30;3.50;;;28.80;37.50;;;;;;5013259;28;20474;-53
2021/06/13 08:40:50;;;;;;;7.03;4.10;;;28.90;37.10;;;;;;5012486;28;20209;-54
2021/06/13 08:43:16;;;;;;;4.23;3.70;;;28.70;36.70;;;;;;5019265;28;20465;-52
2021/06/13 08:45:43;;;;;;;4.80;4.00;;;28.60;36.70;;;;;;5012565;28;20432;-52
2021/06/13 08:48:09;;;;;;;7.53;4.00;;;28.50;36.90;;;;;;5013155;28;20575;-54
2021/06/13 08:50:37;;;;;;;3.90;3.50;;;28.40;37.30;;;;;;5012342;28;20425;-53
2021/06/13 08:53:05;;;;;;;4.37;3.97;;;28.40;37.50;;;;;;5013308;28;20440;-55
2021/06/13 08:55:32;;;;;;;4.47;3.80;;;28.50;37.20;;;;;;5012848;28;20856;-52
2021/06/13 08:57:59;;;;;;;6.33;3.67;;;28.70;37.50;;;;;;5013209;28;20478;-51
2021/06/13 09:00:28;;;;;;;4.00;3.60;;;28.70;37.70;;;;;;5012377;28;20421;-54
2021/06/13 09:02:54;;;;;;;3.90;3.23;;;28.90;37.40;;;;;;5013184;28;20792;-54
2021/06/13 09:05:23;;;;;;;6.07;4.00;;;28.80;38.70;;;;;;5010858;28;20929;-53
2021/06/13 09:07:55;;;;;;;3.90;3.30;;;28.90;37.60;;;;;;5017450;28;20834;-53
2021/06/13 09:10:24;;;;;;;5.43;4.50;;;29.10;38.70;;;;;;5030257;28;20801;-54
2021/06/13 09:12:54;;;;;;;5.50;3.60;;;29.40;37.90;;;;;;5027218;28;142264;-57
2021/06/13 09:15:40;;;;;;;7.23;3.83;;;29.40;36.80;;;;;;5027319;28;20570;-55
2021/06/13 09:18:08;;;;;;;13.90;7.10;;;29.60;36.00;;;;;;5031014;28;20436;-54
2021/06/13 09:20:34;;;;;;;7.20;5.40;;;29.90;36.30;;;;;;5029915;28;20798;-53
2021/06/13 09:23:11;;;;;;;7.70;3.30;;;30.20;34.70;;;;;;5030834;28;20432;-51
2021/06/13 09:25:41;;;;;;;5.53;3.40;;;30.20;34.20;;;;;;5024091;28;20189;-53
2021/06/13 09:28:09;;;;;;;3.90;3.27;;;30.30;33.10;;;;;;5026329;28;20487;-52
2021/06/13 09:30:37;;;;;;;5.10;3.50;;;30.40;33.20;;;;;;5022007;28;20429;-54
2021/06/13 09:33:36;;;;;;;4.53;3.63;;;30.50;34.70;;;;;;5031215;28;20432;-55
2021/06/13 09:36:06;;;;;;;8.87;4.10;;;30.60;33.30;;;;;;4994802;28;20452;-54
2021/06/13 09:38:37;;;;;;;9.57;7.30;;;30.60;33.80;;;;;;5032518;28;20811;-53
2021/06/13 09:41:10;;;;;;;5.13;3.80;;;30.70;32.80;;;;;;5029335;28;20986;-54
2021/06/13 09:43:41;;;;;;;4.97;4.47;;;30.90;33.40;;;;;;5028479;28;20432;-54
2021/06/13 09:46:15;;;;;;;6.33;4.47;;;31.00;35.40;;;;;;5031656;28;20849;-55
2021/06/13 09:48:43;;;;;;;3.50;3.20;;;31.20;33.20;;;;;;5019196;28;20453;-56
2021/06/13 09:51:14;;;;;;;4.03;3.50;;;31.30;31.70;;;;;;5014796;28;20444;-53
2021/06/13 09:53:44;;;;;;;4.30;3.20;;;31.50;32.70;;;;;;5023770;28;20441;-56
2021/06/13 09:56:17;;;;;;;4.03;3.03;;;31.60;32.80;;;;;;5023334;28;20440;-54
2021/06/13 09:58:56;;;;;;;3.47;3.20;;;31.70;32.40;;;;;;5021294;28;20513;-56
2021/06/13 10:01:29;;;;;;;4.47;2.93;;;31.70;33.20;;;;;;5019903;28;20427;-54
2021/06/13 10:03:56;;;;;;;4.97;2.93;;;31.70;33.00;;;;;;5028013;28;20978;-54
2021/06/13 10:06:22;;;;;;;2.83;2.43;;;31.90;32.70;;;;;;5030358;28;20432;-54
2021/06/13 10:08:49;;;;;;;4.40;3.37;;;31.90;30.40;;;;;;5023477;28;21201;-53
2021/06/13 10:11:18;;;;;;;4.40;3.03;;;31.80;30.40;;;;;;5023744;28;20456;-54
2021/06/13 10:13:54;;;;;;;3.57;3.30;;;31.90;30.90;;;;;;5026834;28;20479;-51
2021/06/13 10:16:34;;;;;;;5.17;3.17;;;32.00;30.40;;;;;;5030982;28;20527;-54
2021/06/13 10:19:02;;;;;;;3.33;3.10;;;32.10;31.00;;;;;;5030764;28;20462;-54
2021/06/13 10:21:35;;;;;;;4.13;3.20;;;32.10;30.70;;;;;;5025817;28;20474;-53
2021/06/13 10:24:09;;;;;;;4.57;3.20;;;32.20;30.70;;;;;;5029325;28;20828;-53
2021/06/13 10:26:37;;;;;;;4.10;3.50;;;32.20;31.50;;;;;;5029036;28;20440;-53
2021/06/13 10:29:04;;;;;;;4.63;3.40;;;32.40;31.40;;;;;;5026878;28;20438;-54
2021/06/13 10:31:30;;;;;;;4.57;2.90;;;32.40;30.30;;;;;;5021470;28;20432;-54
2021/06/13 10:33:56;;;;;;;6.43;3.67;;;32.50;30.80;;;;;;5027102;28;20451;-54
2021/06/13 10:36:22;;;;;;;8.53;3.10;;;32.50;30.50;;;;;;5022762;28;20464;-54
2021/06/13 10:38:48;;;;;;;5.20;3.30;;;32.50;30.90;;;;;;5023029;28;20189;-54
2021/06/13 10:41:13;;;;;;;4.47;2.80;;;32.60;29.70;;;;;;5026070;28;20284;-54
2021/06/13 10:43:40;;;;;;;6.73;3.40;;;32.80;28.80;;;;;;5027278;28;20221;-53
2021/06/13 10:46:06;;;;;;;3.67;2.97;;;32.80;28.40;;;;;;5027491;28;20272;-53
2021/06/13 10:48:41;;;;;;;3.60;3.30;;;32.80;29.00;;;;;;5028225;28;20480;-52
2021/06/13 10:51:34;;;;;;;4.53;3.17;;;32.80;29.10;;;;;;5025350;28;20442;-54
2021/06/13 10:54:23;;;;;;;3.33;3.00;;;32.60;29.10;;;;;;5029393;28;21017;-53
2021/06/13 10:56:50;;;;;;;3.63;2.60;;;32.60;28.90;;;;;;5028781;28;20444;-53
2021/06/13 10:59:18;;;;;;;3.60;2.93;;;32.40;28.90;;;;;;5027199;28;20444;-52
2021/06/13 11:02:11;;;;;;;4.33;2.70;;;32.30;28.90;;;;;;5026303;28;20449;-51
2021/06/13 11:04:43;;;;;;;4.13;3.60;;;32.30;29.80;;;;;;5027804;28;20470;-54
2021/06/13 11:07:10;;;;;;;5.57;3.53;;;32.40;28.90;;;;;;5030698;28;20487;-51
2021/06/13 11:10:08;;;;;;;5.07;2.97;;;32.30;28.50;;;;;;5029111;28;20427;-53
2021/06/13 11:13:01;;;;;;;3.03;2.57;;;32.40;28.70;;;;;;5028478;28;20852;-51
2021/06/13 11:15:39;;;;;;;2.87;2.67;;;32.60;28.70;;;;;;5022660;28;20450;-53
2021/06/13 11:18:29;;;;;;;5.50;3.27;;;32.70;29.40;;;;;;5019350;28;20432;-53
2021/06/13 11:21:05;;;;;;;3.77;2.53;;;32.80;29.60;;;;;;5028918;28;20764;-50
2021/06/13 11:23:31;;;;;;;4.30;3.00;;;32.90;29.00;;;;;;5019179;28;20444;-53
2021/06/13 11:25:58;;;;;;;2.60;2.30;;;33.00;28.90;;;;;;5014770;28;20433;-52
2021/06/13 11:28:34;;;;;;;3.30;2.70;;;33.10;29.10;;;;;;5013721;28;20236;-54
2021/06/13 11:31:16;;;;;;;3.60;2.30;;;33.20;29.00;;;;;;5016679;28;20925;-53
2021/06/13 11:34:00;;;;;;;3.63;2.77;;;33.40;29.50;;;;;;5027917;28;20931;-52
2021/06/13 11:36:32;;;;;;;2.80;2.30;;;33.40;28.50;;;;;;5029756;28;20818;-54
2021/06/13 11:39:04;;;;;;;5.73;3.10;;;33.30;27.10;;;;;;5015352;28;20425;-54
2021/06/13 11:41:39;;;;;;;2.40;2.13;;;33.20;27.50;;;;;;5027791;28;20466;-52
2021/06/13 11:44:08;;;;;;;2.23;2.13;;;33.30;27.40;;;;;;5028605;28;20877;-54
2021/06/13 11:46:36;;;;;;;4.27;2.30;;;33.40;27.20;;;;;;5030028;28;20777;-52
2021/06/13 11:49:04;;;;;;;2.77;2.50;;;33.50;26.50;;;;;;5018774;28;20479;-53
2021/06/13 11:51:31;;;;;;;2.63;2.30;;;33.60;25.90;;;;;;5028302;28;20471;-52
2021/06/13 11:54:02;;;;;;;2.53;2.33;;;33.40;26.10;;;;;;5017680;28;20431;-54
2021/06/13 11:56:34;;;;;;;2.40;2.07;;;33.40;26.00;;;;;;5020741;28;21030;-49
2021/06/13 11:59:21;;;;;;;3.73;2.00;;;33.50;24.80;;;;;;5015162;28;21311;-50
2021/06/13 12:01:58;;;;;;;3.30;2.10;;;33.70;25.20;;;;;;5026081;28;20794;-51
2021/06/13 12:04:26;;;;;;;2.03;1.80;;;33.70;25.30;;;;;;5027713;28;21043;-50
2021/06/13 12:06:53;;;;;;;2.97;2.33;;;33.50;25.00;;;;;;5029822;28;20471;-49
2021/06/13 12:09:22;;;;;;;2.30;2.10;;;33.40;25.70;;;;;;5018075;28;20425;-51
2021/06/13 12:11:58;;;;;;;4.27;2.10;;;33.60;25.70;;;;;;5017587;28;20496;-50
2021/06/13 12:14:33;;;;;;;5.70;2.40;;;33.60;24.10;;;;;;5013725;28;20495;-50
2021/06/13 12:17:03;;;;;;;2.90;2.70;;;33.70;25.10;;;;;;5032044;28;20534;-55
2021/06/13 12:19:38;;;;;;;4.20;2.20;;;33.80;25.30;;;;;;5031522;28;20939;-54
2021/06/13 12:22:18;;;;;;;2.57;2.30;;;33.90;24.40;;;;;;5029259;28;20809;-52
2021/06/13 12:27:22;;;;;;;3.20;2.20;;;33.80;23.60;;;;;;5030723;28;20483;-56
2021/06/13 12:29:48;;;;;;;5.33;2.40;;;33.70;24.50;;;;;;5021451;28;20660;-56
2021/06/13 12:32:16;;;;;;;2.23;2.07;;;33.70;23.10;;;;;;5030641;28;20450;-57
2021/06/13 12:34:45;;;;;;;2.90;2.70;;;33.60;23.50;;;;;;5030655;28;20926;-56
2021/06/13 12:37:17;;;;;;;4.23;2.30;;;33.70;25.30;;;;;;5017934;28;20437;-56
2021/06/13 12:39:53;;;;;;;2.07;1.80;;;33.60;25.30;;;;;;5028160;28;20432;-55
2021/06/13 12:42:19;;;;;;;4.27;2.40;;;33.90;24.80;;;;;;5028886;28;20440;-56
2021/06/13 12:44:44;;;;;;;2.97;2.07;;;33.70;26.00;;;;;;5018826;28;20440;-57
2021/06/13 12:47:10;;;;;;;2.80;2.23;;;33.60;25.10;;;;;;5021429;28;20696;-56
2021/06/13 12:49:42;;;;;;;1.97;1.80;;;33.80;23.30;;;;;;5031589;28;20189;-56
2021/06/13 12:52:16;;;;;;;1.87;1.70;;;33.80;22.40;;;;;;5026403;28;20598;-56
2021/06/13 12:54:44;;;;;;;2.13;2.00;;;34.00;21.90;;;;;;5028535;28;20440;-56
2021/06/13 12:57:10;;;;;;;2.57;2.00;;;34.10;22.30;;;;;;5023240;28;20439;-56